createdAt,value
2019-05-14T00:02:03.757Z,98.00
2019-05-14T00:04:32.092Z,99.30
2019-05-14T00:07:05.013Z,99.90
2019-05-14T00:09:57.217Z,99.90
2019-05-14T00:12:32.812Z,99.90
2019-05-14T00:15:06.552Z,99.90
2019-05-14T00:17:41.580Z,99.90
2019-05-14T00:20:13.197Z,99.90
2019-05-14T00:22:41.953Z,99.90
2019-05-14T00:25:18.524Z,98.80
2019-05-14T00:28:03.525Z,98.50
2019-05-14T00:30:32.741Z,99.30
2019-05-14T00:33:01.856Z,99.70
2019-05-14T00:35:32.006Z,99.90
2019-05-14T00:38:01.505Z,99.60
2019-05-14T00:40:31.437Z,99.50
2019-05-14T00:43:02.475Z,99.90
2019-05-14T00:45:31.411Z,99.90
2019-05-14T00:48:01.487Z,99.90
2019-05-14T00:50:31.762Z,99.90
2019-05-14T00:53:01.923Z,99.50
2019-05-14T00:55:31.642Z,99.30
2019-05-14T00:58:02.425Z,99.50
2019-05-14T01:00:31.343Z,99.30
2019-05-14T01:03:02.072Z,99.50
2019-05-14T01:05:32.232Z,99.90
2019-05-14T01:08:01.918Z,99.90
2019-05-14T01:10:31.328Z,99.70
2019-05-14T01:13:01.533Z,99.90
2019-05-14T01:15:32.244Z,99.90
2019-05-14T01:18:02.407Z,99.90
2019-05-14T01:20:31.918Z,99.90
2019-05-14T01:23:02.334Z,99.90
2019-05-14T01:25:31.881Z,99.90
2019-05-14T01:28:03.147Z,99.90
2019-05-14T01:30:32.052Z,99.90
2019-05-14T01:33:04.966Z,99.90
2019-05-14T01:35:33.743Z,99.90
2019-05-14T01:38:02.632Z,99.90
2019-05-14T01:40:31.822Z,99.90
2019-05-14T01:43:03.101Z,99.90
2019-05-14T01:45:32.323Z,99.90
2019-05-14T01:48:05.829Z,99.90
2019-05-14T01:50:34.678Z,99.90
2019-05-14T01:53:03.030Z,99.90
2019-05-14T01:55:32.459Z,99.90
2019-05-14T01:58:02.329Z,99.90
2019-05-14T02:00:31.397Z,99.90
2019-05-14T02:03:01.800Z,99.90
2019-05-14T02:05:31.048Z,99.90
2019-05-14T02:08:01.843Z,99.90
2019-05-14T02:10:31.555Z,99.90
2019-05-14T02:13:01.926Z,99.90
2019-05-14T02:15:39.589Z,99.90
2019-05-14T02:18:02.385Z,99.90
2019-05-14T02:20:32.118Z,99.90
2019-05-14T02:23:01.520Z,99.90
2019-05-14T02:25:32.067Z,99.90
2019-05-14T02:28:01.432Z,99.90
2019-05-14T02:30:45.866Z,99.90
2019-05-14T02:33:00.753Z,99.90
2019-05-14T02:35:29.785Z,99.90
2019-05-14T02:37:59.652Z,99.90
2019-05-14T02:40:29.649Z,99.90
2019-05-14T02:42:59.460Z,99.90
2019-05-14T02:45:30.264Z,99.90
2019-05-14T02:48:00.255Z,99.90
2019-05-14T02:50:32.293Z,99.90
2019-05-14T02:53:00.731Z,99.90
2019-05-14T02:55:30.066Z,99.90
2019-05-14T02:57:59.725Z,99.90
2019-05-14T03:00:30.194Z,99.90
2019-05-14T03:02:59.879Z,99.90
2019-05-14T03:05:29.465Z,99.90
2019-05-14T03:07:59.771Z,99.90
2019-05-14T03:10:30.145Z,99.90
2019-05-14T03:12:59.234Z,99.90
2019-05-14T03:15:29.412Z,99.90
2019-05-14T03:17:59.995Z,99.90
2019-05-14T03:20:28.933Z,99.90
2019-05-14T03:23:04.988Z,99.90
2019-05-14T03:25:30.165Z,99.90
2019-05-14T03:28:00.488Z,99.90
2019-05-14T03:30:33.200Z,99.90
2019-05-14T03:33:03.141Z,99.90
2019-05-14T03:35:42.125Z,99.90
2019-05-14T03:38:02.848Z,99.90
2019-05-14T03:40:33.102Z,99.90
2019-05-14T03:43:01.695Z,99.90
2019-05-14T03:45:31.126Z,99.90
2019-05-14T03:47:59.576Z,99.90
2019-05-14T03:50:29.717Z,99.90
2019-05-14T03:52:59.558Z,99.90
2019-05-14T03:55:29.299Z,99.90
2019-05-14T03:57:59.461Z,99.90
2019-05-14T04:00:50.614Z,99.90
2019-05-14T04:03:39.762Z,99.90
2019-05-14T04:06:14.983Z,99.90
2019-05-14T04:08:44.070Z,99.90
2019-05-14T04:11:13.052Z,99.90
2019-05-14T04:13:41.749Z,99.90
2019-05-14T04:16:16.022Z,99.90
2019-05-14T04:18:45.346Z,99.90
2019-05-14T04:21:14.460Z,99.90
2019-05-14T04:23:51.223Z,99.90
2019-05-14T04:26:21.343Z,99.90
2019-05-14T04:28:51.282Z,99.90
2019-05-14T04:31:20.548Z,99.90
2019-05-14T04:33:51.553Z,99.90
2019-05-14T04:36:32.895Z,99.90
2019-05-14T04:39:01.403Z,99.90
2019-05-14T04:41:30.136Z,99.60
2019-05-14T04:43:59.631Z,99.80
2019-05-14T04:46:40.536Z,99.90
2019-05-14T04:49:09.805Z,99.90
2019-05-14T04:51:40.973Z,99.60
2019-05-14T04:54:09.914Z,99.90
2019-05-14T04:56:39.956Z,99.80
2019-05-14T04:59:10.353Z,99.90
2019-05-14T05:01:41.041Z,99.60
2019-05-14T05:04:09.754Z,99.90
2019-05-14T05:06:39.669Z,99.90
2019-05-14T05:09:09.798Z,99.40
2019-05-14T05:11:41.837Z,99.40
2019-05-14T05:14:10.516Z,99.30
2019-05-14T05:16:39.342Z,98.90
2019-05-14T05:19:10.351Z,99.80
2019-05-14T05:21:39.050Z,99.10
2019-05-14T05:24:09.173Z,99.70
2019-05-14T05:26:41.623Z,99.50
2019-05-14T05:29:10.676Z,99.90
2019-05-14T05:31:39.154Z,99.90
2019-05-14T05:34:09.339Z,99.90
2019-05-14T05:36:41.604Z,99.90
2019-05-14T05:39:11.447Z,99.90
2019-05-14T05:41:40.902Z,99.90
2019-05-14T05:44:10.407Z,99.90
2019-05-14T05:46:43.335Z,99.90
2019-05-14T05:49:11.981Z,99.90
2019-05-14T05:51:42.081Z,99.60
2019-05-14T05:54:10.643Z,99.70
2019-05-14T05:56:39.206Z,99.90
2019-05-14T05:59:09.448Z,99.90
2019-05-14T06:01:46.136Z,99.90
2019-05-14T06:04:11.491Z,99.60
2019-05-14T06:06:43.072Z,99.80
2019-05-14T06:09:11.622Z,99.90
2019-05-14T06:11:41.256Z,99.90
2019-05-14T06:14:13.513Z,99.30
2019-05-14T06:16:44.186Z,99.40
2019-05-14T06:19:34.739Z,99.90
2019-05-14T06:22:10.290Z,99.90
2019-05-14T06:24:53.177Z,98.40
2019-05-14T06:31:09.132Z,98.10
2019-05-14T06:33:43.007Z,99.10
2019-05-14T06:36:19.382Z,98.60
2019-05-14T06:38:59.616Z,97.70
2019-05-14T06:41:42.407Z,97.20
2019-05-14T06:44:20.736Z,98.00
2019-05-14T06:46:58.934Z,97.50
2019-05-14T06:49:45.194Z,97.10
2019-05-14T06:52:38.915Z,97.40
2019-05-14T06:55:32.954Z,97.80
2019-05-14T06:58:03.182Z,99.10
2019-05-14T07:00:39.467Z,98.70
2019-05-14T07:03:25.326Z,99.10
2019-05-14T07:06:00.677Z,99.30
2019-05-14T07:08:49.413Z,98.10
2019-05-14T07:11:43.364Z,98.40
2019-05-14T07:14:18.779Z,98.70
2019-05-14T07:17:04.377Z,98.60
2019-05-14T07:19:39.721Z,96.80
2019-05-14T07:22:22.406Z,97.30
2019-05-14T07:25:09.545Z,97.70
2019-05-14T07:27:39.199Z,97.40
2019-05-14T07:30:19.811Z,97.10
2019-05-14T07:32:58.869Z,98.10
2019-05-14T07:35:42.914Z,98.20
2019-05-14T07:38:35.901Z,98.20
2019-05-14T07:41:28.285Z,98.80
2019-05-14T07:44:15.485Z,98.20
2019-05-14T07:46:58.951Z,99.10
2019-05-14T07:49:33.339Z,98.90
2019-05-14T07:52:09.229Z,98.50
2019-05-14T07:54:48.091Z,97.20
2019-05-14T07:58:14.916Z,97.60
2019-05-14T08:00:50.594Z,97.20
2019-05-14T08:03:32.745Z,98.70
2019-05-14T08:06:14.150Z,98.10
2019-05-14T08:11:58.735Z,97.80
2019-05-14T08:14:42.055Z,97.60
2019-05-14T08:17:08.608Z,97.50
2019-05-14T08:19:58.263Z,97.60
2019-05-14T08:22:44.212Z,98.50
2019-05-14T08:25:39.309Z,98.60
2019-05-14T08:28:14.480Z,98.30
2019-05-14T08:30:58.966Z,97.90
2019-05-14T08:33:31.466Z,97.80
2019-05-14T08:36:30.535Z,97.20
2019-05-14T08:42:25.459Z,96.20
2019-05-14T08:45:13.914Z,97.60
2019-05-14T08:47:48.118Z,98.00
2019-05-14T08:50:28.506Z,96.90
2019-05-14T08:53:09.000Z,97.30
2019-05-14T08:55:42.041Z,98.10
2019-05-14T08:58:21.410Z,97.20
2019-05-14T09:00:52.675Z,97.70
2019-05-14T09:03:35.658Z,96.10
2019-05-14T09:06:11.343Z,98.10
2019-05-14T09:08:49.254Z,98.30
2019-05-14T09:11:26.173Z,98.20
2019-05-14T09:13:59.459Z,98.90
2019-05-14T09:16:41.872Z,99.20
2019-05-14T09:19:19.084Z,99.20
2019-05-14T09:21:51.454Z,98.60
2019-05-14T09:24:33.440Z,98.60
2019-05-14T09:27:19.051Z,96.20
2019-05-14T09:29:58.957Z,95.30
2019-05-14T09:32:42.637Z,96.70
2019-05-14T09:35:38.578Z,97.70
2019-05-14T09:38:15.109Z,98.40
2019-05-14T09:41:06.617Z,98.00
2019-05-14T09:43:25.672Z,97.20
2019-05-14T09:45:59.100Z,96.60
2019-05-14T09:48:49.629Z,96.80
2019-05-14T09:51:24.407Z,97.10
2019-05-14T09:54:02.974Z,98.80
2019-05-14T09:56:33.438Z,98.30
2019-05-14T09:59:20.890Z,98.00
2019-05-14T10:02:05.483Z,97.20
2019-05-14T10:05:21.938Z,97.40
2019-05-14T10:07:34.292Z,98.60
2019-05-14T10:10:20.768Z,97.70
2019-05-14T10:13:21.986Z,98.10
2019-05-14T10:16:09.395Z,97.80
2019-05-14T10:18:52.215Z,97.90
2019-05-14T10:21:35.066Z,98.40
2019-05-14T10:24:20.406Z,97.80
2019-05-14T10:27:08.887Z,99.10
2019-05-14T10:29:49.232Z,97.80
2019-05-14T10:32:35.954Z,98.50
2019-05-14T10:35:15.670Z,98.10
2019-05-14T10:38:18.905Z,98.00
2019-05-14T10:40:44.843Z,99.10
2019-05-14T10:43:58.864Z,99.40
2019-05-14T10:46:33.531Z,98.10
2019-05-14T10:49:23.807Z,98.20
2019-05-14T10:51:58.606Z,98.50
2019-05-14T10:54:34.897Z,97.60
2019-05-14T10:57:13.367Z,97.20
2019-05-14T10:59:54.959Z,97.30
2019-05-14T11:02:30.599Z,97.70
2019-05-14T11:05:05.345Z,98.70
2019-05-14T11:07:42.730Z,96.90
2019-05-14T11:10:19.840Z,98.80
2019-05-14T11:12:55.119Z,97.90
2019-05-14T11:15:30.446Z,97.90
2019-05-14T11:18:09.022Z,97.70
2019-05-14T11:20:42.104Z,99.00
2019-05-14T11:23:18.294Z,98.40
2019-05-14T11:25:48.811Z,98.50
2019-05-14T11:28:19.410Z,99.00
2019-05-14T11:30:49.915Z,98.50
2019-05-14T11:33:26.225Z,98.50
2019-05-14T11:35:58.828Z,99.10
2019-05-14T11:38:37.312Z,98.60
2019-05-14T11:41:03.580Z,98.50
2019-05-14T11:43:35.507Z,97.90
2019-05-14T11:46:05.448Z,97.90
2019-05-14T11:48:39.327Z,98.20
2019-05-14T11:51:12.584Z,98.80
2019-05-14T11:53:44.888Z,97.90
2019-05-14T11:56:14.222Z,99.20
2019-05-14T11:58:45.114Z,98.50
2019-05-14T12:01:18.970Z,98.80
2019-05-14T12:03:55.323Z,98.40
2019-05-14T12:06:27.156Z,99.10
2019-05-14T12:08:58.218Z,97.40
2019-05-14T12:11:29.042Z,98.80
2019-05-14T12:14:00.262Z,98.80
2019-05-14T12:16:29.318Z,98.50
2019-05-14T12:18:59.228Z,99.40
2019-05-14T12:21:29.563Z,97.30
2019-05-14T12:24:04.690Z,96.80
2019-05-14T12:26:31.592Z,98.00
2019-05-14T12:29:05.336Z,98.70
2019-05-14T12:31:35.592Z,99.60
2019-05-14T12:34:09.122Z,99.90
2019-05-14T12:36:45.014Z,99.70
2019-05-14T12:39:14.220Z,98.50
2019-05-14T12:41:48.844Z,97.90
2019-05-14T12:44:19.358Z,98.20
2019-05-14T12:46:48.977Z,99.30
2019-05-14T12:49:19.153Z,99.20
2019-05-14T12:51:49.397Z,98.90
2019-05-14T12:54:19.837Z,97.80
2019-05-14T12:56:53.879Z,98.70
2019-05-14T12:59:22.779Z,99.00
2019-05-14T13:01:51.814Z,98.20
2019-05-14T13:04:20.535Z,97.90
2019-05-14T13:06:59.812Z,97.60
2019-05-14T13:09:29.064Z,98.30
2019-05-14T13:11:59.622Z,98.10
2019-05-14T13:14:29.548Z,98.50
2019-05-14T13:17:00.380Z,96.60
2019-05-14T13:19:30.873Z,97.30
2019-05-14T13:22:13.387Z,97.40
2019-05-14T13:24:32.834Z,98.10
2019-05-14T13:27:02.788Z,99.40
2019-05-14T13:29:32.431Z,99.20
2019-05-14T13:32:01.591Z,99.70
2019-05-14T13:34:30.952Z,99.40
2019-05-14T13:37:00.894Z,98.70
2019-05-14T13:39:30.397Z,99.10
2019-05-14T13:42:05.285Z,98.40
2019-05-14T13:44:34.764Z,98.20
2019-05-14T13:47:04.751Z,98.70
2019-05-14T13:49:34.014Z,97.90
2019-05-14T13:52:03.398Z,98.70
2019-05-14T13:54:45.372Z,98.00
2019-05-14T13:57:19.125Z,97.00
2019-05-14T13:59:59.010Z,97.90
2019-05-14T14:02:31.105Z,99.00
2019-05-14T14:05:00.804Z,98.80
2019-05-14T14:07:33.026Z,99.40
2019-05-14T14:10:03.067Z,98.80
2019-05-14T14:12:39.895Z,99.50
2019-05-14T14:15:12.733Z,99.40
2019-05-14T14:17:49.595Z,99.40
2019-05-14T14:20:19.479Z,99.70
2019-05-14T14:22:49.607Z,99.40
2019-05-14T14:25:18.444Z,99.50
2019-05-14T14:27:48.737Z,99.90
2019-05-14T14:30:19.452Z,99.90
2019-05-14T14:32:51.934Z,99.50
2019-05-14T14:35:24.003Z,99.90
2019-05-14T14:37:59.163Z,99.90
2019-05-14T14:40:31.719Z,99.90
2019-05-14T14:43:01.007Z,99.90
2019-05-14T14:45:29.537Z,99.70
2019-05-14T14:48:01.270Z,99.90
2019-05-14T14:50:33.225Z,99.90
2019-05-14T14:53:04.365Z,99.90
2019-05-14T14:55:40.178Z,99.90
2019-05-14T14:58:11.410Z,99.90
2019-05-14T15:00:41.938Z,99.90
2019-05-14T15:03:12.991Z,99.90
2019-05-14T15:05:41.992Z,99.90
2019-05-14T15:08:11.589Z,99.90
2019-05-14T15:10:48.386Z,99.90
2019-05-14T15:13:29.529Z,99.90
2019-05-14T15:16:03.570Z,99.90
2019-05-14T15:18:38.618Z,99.90
2019-05-14T15:21:09.770Z,99.90
2019-05-14T15:23:43.129Z,99.90
2019-05-14T15:26:14.379Z,99.90
2019-05-14T15:28:45.021Z,99.90
2019-05-14T15:31:14.627Z,99.90
2019-05-14T15:33:44.104Z,99.90
2019-05-14T15:36:14.518Z,99.90
2019-05-14T15:38:48.617Z,99.90
2019-05-14T15:41:20.157Z,99.90
2019-05-14T15:43:49.136Z,99.90
2019-05-14T15:46:18.497Z,99.90
2019-05-14T15:48:48.659Z,99.90
2019-05-14T15:51:19.481Z,99.90
2019-05-14T15:54:06.381Z,99.90
2019-05-14T15:56:19.856Z,99.90
2019-05-14T15:58:53.076Z,99.90
2019-05-14T16:01:23.146Z,99.90
2019-05-14T16:03:51.839Z,99.90
2019-05-14T16:06:22.839Z,99.90
2019-05-14T16:08:51.940Z,99.90
2019-05-14T16:11:20.642Z,99.90
2019-05-14T16:13:54.181Z,99.90
2019-05-14T16:16:24.156Z,99.90
2019-05-14T16:18:52.746Z,99.90
2019-05-14T16:21:21.861Z,99.90
2019-05-14T16:23:52.837Z,99.90
2019-05-14T16:26:25.460Z,99.90
2019-05-14T16:28:54.691Z,99.90
2019-05-14T16:31:23.177Z,99.90
2019-05-14T16:33:51.594Z,99.90
2019-05-14T16:36:20.125Z,99.90
2019-05-14T16:38:48.869Z,99.90
2019-05-14T16:41:18.459Z,99.90
2019-05-14T16:43:49.297Z,99.90
2019-05-14T16:46:18.225Z,99.90
2019-05-14T16:48:48.894Z,99.90
2019-05-14T16:51:19.296Z,99.90
2019-05-14T16:53:48.783Z,99.90
2019-05-14T16:56:19.122Z,99.90
2019-05-14T16:58:48.925Z,99.90
2019-05-14T17:01:19.447Z,99.90
2019-05-14T17:03:49.642Z,99.90
2019-05-14T17:06:18.724Z,99.90
2019-05-14T17:08:49.306Z,99.90
2019-05-14T17:11:18.397Z,99.90
2019-05-14T17:13:49.317Z,99.90
2019-05-14T17:16:19.660Z,99.90
2019-05-14T17:18:49.127Z,99.90
2019-05-14T17:21:18.374Z,99.90
2019-05-14T17:23:49.061Z,99.90
2019-05-14T17:26:18.236Z,99.90
2019-05-14T17:28:48.941Z,99.90
2019-05-14T17:31:19.042Z,99.90
2019-05-14T17:33:49.197Z,99.90
2019-05-14T17:36:18.882Z,99.90
2019-05-14T17:38:49.276Z,99.90
2019-05-14T17:41:19.502Z,99.90
2019-05-14T17:43:52.669Z,99.90
2019-05-14T17:46:25.641Z,99.90
2019-05-14T17:48:54.660Z,99.90
2019-05-14T17:51:24.533Z,99.90
2019-05-14T17:53:53.416Z,99.90
2019-05-14T17:56:22.974Z,99.90
2019-05-14T17:58:52.764Z,99.90
2019-05-14T18:01:21.742Z,99.90
2019-05-14T18:03:50.613Z,99.90
2019-05-14T18:06:19.244Z,99.90
2019-05-14T18:08:48.111Z,99.90
2019-05-14T18:11:18.964Z,99.90
2019-05-14T18:13:48.518Z,99.90
2019-05-14T18:16:19.188Z,99.90
2019-05-14T18:18:49.355Z,99.90
2019-05-14T18:21:18.078Z,99.90
2019-05-14T18:23:49.086Z,99.90
2019-05-14T18:26:18.874Z,99.90
2019-05-14T18:28:48.649Z,99.90
2019-05-14T18:31:20.596Z,99.90
2019-05-14T18:33:49.537Z,99.90
2019-05-14T18:36:19.189Z,99.90
2019-05-14T18:38:49.321Z,99.90
2019-05-14T18:41:18.864Z,99.90
2019-05-14T18:43:48.820Z,99.90
2019-05-14T18:46:19.161Z,99.90
2019-05-14T18:48:48.749Z,99.90
2019-05-14T18:51:19.669Z,99.90
2019-05-14T18:53:50.806Z,99.90
2019-05-14T18:56:23.928Z,99.90
2019-05-14T18:58:49.681Z,99.90
2019-05-14T19:01:19.586Z,99.90
2019-05-14T19:03:51.420Z,99.90
2019-05-14T19:06:19.932Z,99.90
2019-05-14T19:08:48.519Z,99.90
2019-05-14T19:11:17.438Z,99.90
2019-05-14T19:13:48.273Z,99.90
2019-05-14T19:16:16.363Z,99.90
2019-05-14T19:18:44.854Z,99.90
2019-05-14T19:21:13.746Z,99.90
2019-05-14T19:23:45.138Z,99.90
2019-05-14T19:26:12.275Z,99.90
2019-05-14T19:28:41.534Z,99.90
2019-05-14T19:31:12.307Z,99.90
2019-05-14T19:33:41.661Z,99.90
2019-05-14T19:36:10.071Z,99.90
2019-05-14T19:38:39.112Z,99.90
2019-05-14T19:41:08.758Z,99.90
2019-05-14T19:43:37.410Z,99.90
2019-05-14T19:46:05.905Z,99.90
2019-05-14T19:48:34.370Z,99.90
2019-05-14T19:51:02.938Z,99.90
2019-05-14T19:53:32.136Z,99.90
2019-05-14T19:56:00.637Z,99.90
2019-05-14T19:58:29.523Z,99.90
2019-05-14T20:00:58.837Z,99.90
2019-05-14T20:03:29.129Z,99.90
2019-05-14T20:05:57.753Z,99.90
2019-05-14T20:08:29.376Z,99.90
2019-05-14T20:11:01.207Z,99.90
2019-05-14T20:13:29.941Z,99.90
2019-05-14T20:15:59.030Z,99.90
2019-05-14T20:18:28.884Z,99.90
2019-05-14T20:20:59.267Z,99.90
2019-05-14T20:23:29.571Z,99.90
2019-05-14T20:25:58.765Z,99.90
2019-05-14T20:28:29.631Z,99.90
2019-05-14T20:30:58.802Z,99.90
2019-05-14T20:33:29.974Z,99.90
2019-05-14T20:35:59.033Z,99.90
2019-05-14T20:38:28.422Z,99.90
2019-05-14T20:40:58.144Z,99.90
2019-05-14T20:43:33.820Z,99.90
2019-05-14T20:46:02.533Z,99.90
2019-05-14T20:48:30.926Z,99.90
2019-05-14T20:50:59.425Z,99.90
2019-05-14T20:53:29.145Z,99.90
2019-05-14T20:55:58.816Z,99.90
2019-05-14T20:58:28.234Z,99.90
2019-05-14T21:00:57.040Z,99.90
2019-05-14T21:03:25.770Z,99.90
2019-05-14T21:05:54.313Z,99.90
2019-05-14T21:08:22.725Z,99.90
2019-05-14T21:10:52.919Z,99.90
2019-05-14T21:13:21.401Z,99.90
2019-05-14T21:15:51.242Z,99.90
2019-05-14T21:18:34.195Z,99.90
2019-05-14T21:20:51.060Z,99.90
2019-05-14T21:23:22.841Z,99.90
2019-05-14T21:25:51.554Z,99.90
2019-05-14T21:28:22.483Z,99.90
2019-05-14T21:30:51.167Z,99.90
2019-05-14T21:33:24.789Z,99.90
2019-05-14T21:35:53.210Z,99.90
2019-05-14T21:38:23.370Z,99.90
2019-05-14T21:40:51.647Z,99.90
2019-05-14T21:43:22.382Z,99.90
2019-05-14T21:45:58.501Z,99.90
2019-05-14T21:48:29.937Z,99.90
2019-05-14T21:51:04.232Z,99.90
2019-05-14T21:53:40.855Z,99.90
2019-05-14T21:56:10.832Z,99.90
2019-05-14T21:58:40.098Z,99.90
2019-05-14T22:01:14.381Z,99.90
2019-05-14T22:03:48.557Z,99.90
2019-05-14T22:06:21.187Z,99.90
2019-05-14T22:08:50.413Z,99.90
2019-05-14T22:11:21.762Z,99.90
2019-05-14T22:13:58.161Z,99.90
2019-05-14T22:16:29.579Z,99.90
2019-05-14T22:19:02.248Z,99.90
2019-05-14T22:21:33.745Z,99.90
2019-05-14T22:24:04.316Z,99.90
2019-05-14T22:26:33.943Z,99.90
2019-05-14T22:29:02.747Z,99.90
2019-05-14T22:31:31.805Z,99.90
2019-05-14T22:34:00.642Z,99.90
2019-05-14T22:36:29.480Z,99.90
2019-05-14T22:38:58.253Z,99.90
2019-05-14T22:41:29.131Z,99.90
2019-05-14T22:43:59.938Z,99.90
2019-05-14T22:46:29.071Z,99.90
2019-05-14T22:49:00.398Z,99.90
2019-05-14T22:51:28.823Z,99.90
2019-05-14T22:53:58.966Z,99.90
2019-05-14T22:56:28.085Z,99.90
2019-05-14T22:58:58.332Z,99.90
2019-05-14T23:01:28.886Z,99.90
2019-05-14T23:03:59.576Z,99.90
2019-05-14T23:06:28.149Z,99.90
2019-05-14T23:08:58.124Z,99.90
2019-05-14T23:11:31.151Z,99.90
2019-05-14T23:14:00.630Z,99.90
2019-05-14T23:16:37.543Z,99.90
2019-05-14T23:19:01.258Z,99.90
2019-05-14T23:21:31.245Z,99.90
2019-05-14T23:23:59.913Z,99.90
2019-05-14T23:26:34.129Z,99.90
2019-05-14T23:29:06.170Z,99.90
2019-05-14T23:31:38.775Z,99.90
2019-05-14T23:34:10.241Z,99.90
2019-05-14T23:36:45.071Z,99.90
2019-05-14T23:39:22.722Z,99.90
2019-05-14T23:41:58.337Z,99.90
2019-05-14T23:44:33.112Z,99.90
2019-05-14T23:47:08.171Z,99.90
2019-05-14T23:49:39.638Z,99.90
2019-05-14T23:52:11.905Z,99.90
2019-05-14T23:54:42.361Z,99.90
2019-05-14T23:57:13.416Z,99.90
2019-05-14T23:59:45.716Z,99.90
